sensor_id;sensor_type;location;lat;lon;timestamp;temperature;humidity
49503;DHT22;35409;48.776;9.204;2022-09-21T00:00:40;6.30;99.90
49503;DHT22;35409;48.776;9.204;2022-09-21T00:03:08;6.30;99.90
49503;DHT22;35409;48.776;9.204;2022-09-21T00:05:34;6.40;99.90
49503;DHT22;35409;48.776;9.204;2022-09-21T00:08:02;6.40;99.90
49503;DHT22;35409;48.776;9.204;2022-09-21T00:10:28;6.40;99.90
49503;DHT22;35409;48.776;9.204;2022-09-21T00:12:55;6.40;99.90
49503;DHT22;35409;48.776;9.204;2022-09-21T00:15:21;6.40;99.90
49503;DHT22;35409;48.776;9.204;2022-09-21T00:17:51;6.40;99.90
49503;DHT22;35409;48.776;9.204;2022-09-21T00:20:18;6.40;99.90
49503;DHT22;35409;48.776;9.204;2022-09-21T00:22:45;6.30;99.90
49503;DHT22;35409;48.776;9.204;2022-09-21T00:25:12;6.30;99.90
49503;DHT22;35409;48.776;9.204;2022-09-21T00:27:37;6.30;99.90
49503;DHT22;35409;48.776;9.204;2022-09-21T00:30:04;6.30;99.90
49503;DHT22;35409;48.776;9.204;2022-09-21T00:32:32;6.20;99.90
49503;DHT22;35409;48.776;9.204;2022-09-21T00:34:59;6.30;99.90
49503;DHT22;35409;48.776;9.204;2022-09-21T00:37:25;6.30;99.90
49503;DHT22;35409;48.776;9.204;2022-09-21T00:39:51;6.30;99.90
49503;DHT22;35409;48.776;9.204;2022-09-21T00:42:33;6.30;99.90
49503;DHT22;35409;48.776;9.204;2022-09-21T00:44:58;6.30;99.90
49503;DHT22;35409;48.776;9.204;2022-09-21T00:47:39;6.30;99.90
49503;DHT22;35409;48.776;9.204;2022-09-21T00:50:18;6.20;99.90
49503;DHT22;35409;48.776;9.204;2022-09-21T00:52:52;6.20;99.90
49503;DHT22;35409;48.776;9.204;2022-09-21T00:55:25;6.20;99.90
49503;DHT22;35409;48.776;9.204;2022-09-21T00:58:05;6.10;99.90
49503;DHT22;35409;48.776;9.204;2022-09-21T01:00:34;6.10;99.90
49503;DHT22;35409;48.776;9.204;2022-09-21T01:03:00;6.10;99.90
49503;DHT22;35409;48.776;9.204;2022-09-21T01:05:29;6.00;99.90
49503;DHT22;35409;48.776;9.204;2022-09-21T01:07:57;6.00;99.90
49503;DHT22;35409;48.776;9.204;2022-09-21T01:10:24;5.90;99.90
49503;DHT22;35409;48.776;9.204;2022-09-21T01:13:27;5.90;99.90
49503;DHT22;35409;48.776;9.204;2022-09-21T01:18:57;5.80;99.90
49503;DHT22;35409;48.776;9.204;2022-09-21T01:21:39;5.70;99.90
49503;DHT22;35409;48.776;9.204;2022-09-21T01:24:32;5.70;99.90
49503;DHT22;35409;48.776;9.204;2022-09-21T01:27:26;5.70;99.90
49503;DHT22;35409;48.776;9.204;2022-09-21T01:30:10;5.60;99.90
49503;DHT22;35409;48.776;9.204;2022-09-21T01:35:20;5.60;99.90
49503;DHT22;35409;48.776;9.204;2022-09-21T01:37:52;5.50;99.90
49503;DHT22;35409;48.776;9.204;2022-09-21T01:40:26;5.50;99.90
49503;DHT22;35409;48.776;9.204;2022-09-21T01:42:54;5.50;99.90
49503;DHT22;35409;48.776;9.204;2022-09-21T01:45:26;5.40;99.90
49503;DHT22;35409;48.776;9.204;2022-09-21T01:47:53;5.40;99.90
49503;DHT22;35409;48.776;9.204;2022-09-21T01:50:20;5.40;99.90
49503;DHT22;35409;48.776;9.204;2022-09-21T01:53:12;5.30;99.90
49503;DHT22;35409;48.776;9.204;2022-09-21T01:55:44;5.30;99.90
49503;DHT22;35409;48.776;9.204;2022-09-21T02:00:55;5.30;99.90
49503;DHT22;35409;48.776;9.204;2022-09-21T02:05:55;5.20;99.90
49503;DHT22;35409;48.776;9.204;2022-09-21T02:08:22;5.20;99.90
49503;DHT22;35409;48.776;9.204;2022-09-21T02:10:52;5.20;99.90
49503;DHT22;35409;48.776;9.204;2022-09-21T02:13:20;5.20;99.90
49503;DHT22;35409;48.776;9.204;2022-09-21T02:18:52;5.20;99.90
49503;DHT22;35409;48.776;9.204;2022-09-21T02:26:53;5.30;99.90
49503;DHT22;35409;48.776;9.204;2022-09-21T02:32:10;5.20;99.90
49503;DHT22;35409;48.776;9.204;2022-09-21T02:34:45;5.20;99.90
49503;DHT22;35409;48.776;9.204;2022-09-21T02:37:38;5.20;99.90
49503;DHT22;35409;48.776;9.204;2022-09-21T02:40:46;5.20;99.90
49503;DHT22;35409;48.776;9.204;2022-09-21T02:43:25;5.10;99.90
49503;DHT22;35409;48.776;9.204;2022-09-21T02:46:03;5.10;99.90
49503;DHT22;35409;48.776;9.204;2022-09-21T02:48:57;5.10;99.90
49503;DHT22;35409;48.776;9.204;2022-09-21T02:51:29;5.10;99.90
49503;DHT22;35409;48.776;9.204;2022-09-21T02:54:01;5.10;99.90
49503;DHT22;35409;48.776;9.204;2022-09-21T02:56:29;5.00;99.90
49503;DHT22;35409;48.776;9.204;2022-09-21T02:58:58;5.00;99.90
49503;DHT22;35409;48.776;9.204;2022-09-21T03:01:26;5.00;99.90
49503;DHT22;35409;48.776;9.204;2022-09-21T03:03:52;5.00;99.90
49503;DHT22;35409;48.776;9.204;2022-09-21T03:06:18;5.00;99.90
49503;DHT22;35409;48.776;9.204;2022-09-21T03:08:43;5.00;99.90
49503;DHT22;35409;48.776;9.204;2022-09-21T03:11:09;5.10;99.90
49503;DHT22;35409;48.776;9.204;2022-09-21T03:13:35;5.10;99.90
49503;DHT22;35409;48.776;9.204;2022-09-21T03:16:04;5.10;99.90
49503;DHT22;35409;48.776;9.204;2022-09-21T03:18:31;5.10;99.90
49503;DHT22;35409;48.776;9.204;2022-09-21T03:20:58;5.00;99.90
49503;DHT22;35409;48.776;9.204;2022-09-21T03:23:24;5.00;99.90
49503;DHT22;35409;48.776;9.204;2022-09-21T03:25:49;4.90;99.90
49503;DHT22;35409;48.776;9.204;2022-09-21T03:28:20;4.80;99.90
49503;DHT22;35409;48.776;9.204;2022-09-21T03:30:48;4.80;99.90
49503;DHT22;35409;48.776;9.204;2022-09-21T03:33:14;4.80;99.90
49503;DHT22;35409;48.776;9.204;2022-09-21T03:35:39;4.80;99.90
49503;DHT22;35409;48.776;9.204;2022-09-21T03:43:01;4.90;99.90
49503;DHT22;35409;48.776;9.204;2022-09-21T03:45:27;5.00;99.90
49503;DHT22;35409;48.776;9.204;2022-09-21T03:47:57;5.10;99.90
49503;DHT22;35409;48.776;9.204;2022-09-21T03:50:25;5.00;99.90
49503;DHT22;35409;48.776;9.204;2022-09-21T03:52:50;5.10;99.90
49503;DHT22;35409;48.776;9.204;2022-09-21T03:55:16;5.10;99.90
49503;DHT22;35409;48.776;9.204;2022-09-21T03:57:42;5.10;99.90
49503;DHT22;35409;48.776;9.204;2022-09-21T04:00:09;5.10;99.90
49503;DHT22;35409;48.776;9.204;2022-09-21T04:02:37;5.10;99.90
49503;DHT22;35409;48.776;9.204;2022-09-21T04:05:05;5.00;99.90
49503;DHT22;35409;48.776;9.204;2022-09-21T04:07:32;4.90;99.90
49503;DHT22;35409;48.776;9.204;2022-09-21T04:10:03;4.90;99.90
49503;DHT22;35409;48.776;9.204;2022-09-21T04:14:59;4.70;99.90
49503;DHT22;35409;48.776;9.204;2022-09-21T04:17:24;4.70;99.90
49503;DHT22;35409;48.776;9.204;2022-09-21T04:19:50;4.50;99.90
49503;DHT22;35409;48.776;9.204;2022-09-21T04:22:15;4.50;99.90
49503;DHT22;35409;48.776;9.204;2022-09-21T04:24:42;4.40;99.90
49503;DHT22;35409;48.776;9.204;2022-09-21T04:27:09;4.40;99.90
49503;DHT22;35409;48.776;9.204;2022-09-21T04:29:35;4.40;99.90
49503;DHT22;35409;48.776;9.204;2022-09-21T04:32:01;4.40;99.90
49503;DHT22;35409;48.776;9.204;2022-09-21T04:34:26;4.40;99.90
49503;DHT22;35409;48.776;9.204;2022-09-21T04:36:52;4.50;99.90
49503;DHT22;35409;48.776;9.204;2022-09-21T04:39:19;4.50;99.90
49503;DHT22;35409;48.776;9.204;2022-09-21T04:41:44;4.60;99.90
49503;DHT22;35409;48.776;9.204;2022-09-21T04:44:10;4.60;99.90
49503;DHT22;35409;48.776;9.204;2022-09-21T04:46:36;4.70;99.90
49503;DHT22;35409;48.776;9.204;2022-09-21T04:49:01;4.70;99.90
49503;DHT22;35409;48.776;9.204;2022-09-21T04:51:27;4.70;99.90
49503;DHT22;35409;48.776;9.204;2022-09-21T04:53:52;4.70;99.90
49503;DHT22;35409;48.776;9.204;2022-09-21T04:56:18;4.70;99.90
49503;DHT22;35409;48.776;9.204;2022-09-21T04:58:44;4.70;99.90
49503;DHT22;35409;48.776;9.204;2022-09-21T05:01:09;4.80;99.90
49503;DHT22;35409;48.776;9.204;2022-09-21T05:03:36;4.90;99.90
49503;DHT22;35409;48.776;9.204;2022-09-21T05:06:03;5.00;99.90
49503;DHT22;35409;48.776;9.204;2022-09-21T05:08:29;5.00;99.90
49503;DHT22;35409;48.776;9.204;2022-09-21T05:11:15;5.00;99.90
49503;DHT22;35409;48.776;9.204;2022-09-21T05:13:42;5.00;99.90
49503;DHT22;35409;48.776;9.204;2022-09-21T05:16:08;4.90;99.90
49503;DHT22;35409;48.776;9.204;2022-09-21T05:18:34;4.80;99.90
49503;DHT22;35409;48.776;9.204;2022-09-21T05:21:01;4.80;99.90
49503;DHT22;35409;48.776;9.204;2022-09-21T05:23:29;4.80;99.90
49503;DHT22;35409;48.776;9.204;2022-09-21T05:25:55;4.80;99.90
49503;DHT22;35409;48.776;9.204;2022-09-21T05:28:21;4.80;99.90
49503;DHT22;35409;48.776;9.204;2022-09-21T05:33:49;4.80;99.90
49503;DHT22;35409;48.776;9.204;2022-09-21T05:39:04;4.80;99.90
49503;DHT22;35409;48.776;9.204;2022-09-21T05:41:31;4.70;99.90
49503;DHT22;35409;48.776;9.204;2022-09-21T05:43:57;4.80;99.90
49503;DHT22;35409;48.776;9.204;2022-09-21T05:49:05;4.90;99.90
49503;DHT22;35409;48.776;9.204;2022-09-21T05:51:46;5.00;99.90
49503;DHT22;35409;48.776;9.204;2022-09-21T05:54:51;5.00;99.90
49503;DHT22;35409;48.776;9.204;2022-09-21T06:03:18;5.20;99.90
49503;DHT22;35409;48.776;9.204;2022-09-21T06:05:47;5.40;99.90
49503;DHT22;35409;48.776;9.204;2022-09-21T06:08:12;5.40;99.90
49503;DHT22;35409;48.776;9.204;2022-09-21T06:10:38;5.50;99.90
49503;DHT22;35409;48.776;9.204;2022-09-21T06:13:03;5.60;99.90
49503;DHT22;35409;48.776;9.204;2022-09-21T06:15:29;5.70;99.90
49503;DHT22;35409;48.776;9.204;2022-09-21T06:17:57;5.80;99.90
49503;DHT22;35409;48.776;9.204;2022-09-21T06:20:22;5.80;99.90
49503;DHT22;35409;48.776;9.204;2022-09-21T06:22:49;5.90;99.90
49503;DHT22;35409;48.776;9.204;2022-09-21T06:25:17;6.00;99.90
49503;DHT22;35409;48.776;9.204;2022-09-21T06:27:47;6.00;99.90
49503;DHT22;35409;48.776;9.204;2022-09-21T06:30:12;6.10;99.90
49503;DHT22;35409;48.776;9.204;2022-09-21T06:32:40;6.20;99.90
49503;DHT22;35409;48.776;9.204;2022-09-21T06:35:06;6.30;99.90
49503;DHT22;35409;48.776;9.204;2022-09-21T06:37:32;6.30;99.90
49503;DHT22;35409;48.776;9.204;2022-09-21T06:39:58;6.40;99.90
49503;DHT22;35409;48.776;9.204;2022-09-21T06:42:23;6.40;99.90
49503;DHT22;35409;48.776;9.204;2022-09-21T06:44:49;6.60;99.90
49503;DHT22;35409;48.776;9.204;2022-09-21T06:47:14;6.60;99.90
49503;DHT22;35409;48.776;9.204;2022-09-21T06:49:40;6.70;99.90
49503;DHT22;35409;48.776;9.204;2022-09-21T06:52:06;6.80;99.90
49503;DHT22;35409;48.776;9.204;2022-09-21T06:54:31;6.90;99.90
49503;DHT22;35409;48.776;9.204;2022-09-21T06:56:57;7.00;99.90
49503;DHT22;35409;48.776;9.204;2022-09-21T06:59:22;7.10;99.90
49503;DHT22;35409;48.776;9.204;2022-09-21T07:01:48;7.20;99.90
49503;DHT22;35409;48.776;9.204;2022-09-21T07:04:13;7.40;99.90
49503;DHT22;35409;48.776;9.204;2022-09-21T07:06:39;7.50;99.90
49503;DHT22;35409;48.776;9.204;2022-09-21T07:09:05;7.60;99.90
49503;DHT22;35409;48.776;9.204;2022-09-21T07:11:30;7.60;99.90
49503;DHT22;35409;48.776;9.204;2022-09-21T07:13:56;7.80;99.90
49503;DHT22;35409;48.776;9.204;2022-09-21T07:16:22;7.80;99.90
49503;DHT22;35409;48.776;9.204;2022-09-21T07:18:48;8.00;99.90
49503;DHT22;35409;48.776;9.204;2022-09-21T07:21:14;8.00;99.90
49503;DHT22;35409;48.776;9.204;2022-09-21T07:23:41;8.10;99.90
49503;DHT22;35409;48.776;9.204;2022-09-21T07:26:11;8.30;99.90
49503;DHT22;35409;48.776;9.204;2022-09-21T07:28:37;8.40;99.90
49503;DHT22;35409;48.776;9.204;2022-09-21T07:31:11;8.40;99.90
49503;DHT22;35409;48.776;9.204;2022-09-21T07:33:38;8.60;99.90
49503;DHT22;35409;48.776;9.204;2022-09-21T07:36:05;8.70;99.90
49503;DHT22;35409;48.776;9.204;2022-09-21T07:38:36;8.70;99.90
49503;DHT22;35409;48.776;9.204;2022-09-21T07:41:04;8.90;99.90
49503;DHT22;35409;48.776;9.204;2022-09-21T07:43:30;9.00;99.90
49503;DHT22;35409;48.776;9.204;2022-09-21T07:45:55;9.10;99.90
49503;DHT22;35409;48.776;9.204;2022-09-21T07:48:21;9.20;99.90
49503;DHT22;35409;48.776;9.204;2022-09-21T07:50:48;9.40;99.90
49503;DHT22;35409;48.776;9.204;2022-09-21T07:53:14;9.50;99.90
49503;DHT22;35409;48.776;9.204;2022-09-21T07:55:42;9.60;99.90
49503;DHT22;35409;48.776;9.204;2022-09-21T07:58:08;9.70;99.90
49503;DHT22;35409;48.776;9.204;2022-09-21T08:00:52;9.80;99.90
49503;DHT22;35409;48.776;9.204;2022-09-21T08:03:18;9.90;99.90
49503;DHT22;35409;48.776;9.204;2022-09-21T08:05:44;10.00;99.90
49503;DHT22;35409;48.776;9.204;2022-09-21T08:08:09;10.10;99.90
49503;DHT22;35409;48.776;9.204;2022-09-21T08:10:35;10.20;99.90
49503;DHT22;35409;48.776;9.204;2022-09-21T08:13:01;10.20;99.90
49503;DHT22;35409;48.776;9.204;2022-09-21T08:15:27;10.30;99.90
49503;DHT22;35409;48.776;9.204;2022-09-21T08:17:53;10.40;99.90
49503;DHT22;35409;48.776;9.204;2022-09-21T08:20:19;10.40;99.90
49503;DHT22;35409;48.776;9.204;2022-09-21T08:22:46;10.40;99.90
49503;DHT22;35409;48.776;9.204;2022-09-21T08:25:12;10.70;99.90
49503;DHT22;35409;48.776;9.204;2022-09-21T08:27:38;10.70;99.90
49503;DHT22;35409;48.776;9.204;2022-09-21T08:30:05;10.80;99.90
49503;DHT22;35409;48.776;9.204;2022-09-21T08:32:32;10.90;99.90
49503;DHT22;35409;48.776;9.204;2022-09-21T08:34:57;10.90;99.90
49503;DHT22;35409;48.776;9.204;2022-09-21T08:37:23;11.10;99.90
49503;DHT22;35409;48.776;9.204;2022-09-21T08:39:49;11.20;99.90
49503;DHT22;35409;48.776;9.204;2022-09-21T08:45:20;11.30;99.90
49503;DHT22;35409;48.776;9.204;2022-09-21T08:47:52;11.50;99.90
49503;DHT22;35409;48.776;9.204;2022-09-21T08:50:36;11.60;99.90
49503;DHT22;35409;48.776;9.204;2022-09-21T08:55:56;11.70;99.90
49503;DHT22;35409;48.776;9.204;2022-09-21T08:58:26;11.90;99.90
49503;DHT22;35409;48.776;9.204;2022-09-21T09:03:48;12.10;99.90
49503;DHT22;35409;48.776;9.204;2022-09-21T09:15:15;12.30;99.90
49503;DHT22;35409;48.776;9.204;2022-09-21T09:17:59;12.60;99.90
49503;DHT22;35409;48.776;9.204;2022-09-21T09:20:39;12.70;99.90
49503;DHT22;35409;48.776;9.204;2022-09-21T09:23:21;12.80;99.90
49503;DHT22;35409;48.776;9.204;2022-09-21T09:25:50;13.00;99.90
49503;DHT22;35409;48.776;9.204;2022-09-21T09:28:34;13.10;99.90
49503;DHT22;35409;48.776;9.204;2022-09-21T09:34:37;13.40;99.90
49503;DHT22;35409;48.776;9.204;2022-09-21T09:37:15;13.60;99.90
49503;DHT22;35409;48.776;9.204;2022-09-21T09:39:42;13.60;99.90
49503;DHT22;35409;48.776;9.204;2022-09-21T09:50:43;13.60;99.90
49503;DHT22;35409;48.776;9.204;2022-09-21T09:53:19;13.50;99.90
49503;DHT22;35409;48.776;9.204;2022-09-21T09:55:47;13.50;99.90
49503;DHT22;35409;48.776;9.204;2022-09-21T09:58:46;13.50;99.90
49503;DHT22;35409;48.776;9.204;2022-09-21T10:04:07;13.80;99.90
49503;DHT22;35409;48.776;9.204;2022-09-21T10:06:33;14.00;99.90
49503;DHT22;35409;48.776;9.204;2022-09-21T10:09:22;14.20;99.90
49503;DHT22;35409;48.776;9.204;2022-09-21T10:11:45;14.40;99.90
49503;DHT22;35409;48.776;9.204;2022-09-21T10:14:21;14.60;99.90
49503;DHT22;35409;48.776;9.204;2022-09-21T10:16:52;14.80;99.90
49503;DHT22;35409;48.776;9.204;2022-09-21T10:19:24;15.00;99.90
49503;DHT22;35409;48.776;9.204;2022-09-21T10:21:57;15.10;99.90
49503;DHT22;35409;48.776;9.204;2022-09-21T10:24:50;15.10;99.90
49503;DHT22;35409;48.776;9.204;2022-09-21T10:27:32;15.10;99.90
49503;DHT22;35409;48.776;9.204;2022-09-21T10:29:58;15.10;99.90
49503;DHT22;35409;48.776;9.204;2022-09-21T10:32:28;15.10;99.90
49503;DHT22;35409;48.776;9.204;2022-09-21T10:35:08;15.00;99.90
49503;DHT22;35409;48.776;9.204;2022-09-21T10:37:44;15.00;99.90
49503;DHT22;35409;48.776;9.204;2022-09-21T10:42:45;15.30;99.90
49503;DHT22;35409;48.776;9.204;2022-09-21T10:45:17;15.50;99.90
49503;DHT22;35409;48.776;9.204;2022-09-21T10:52:45;15.70;99.90
49503;DHT22;35409;48.776;9.204;2022-09-21T10:55:16;15.60;99.40
49503;DHT22;35409;48.776;9.204;2022-09-21T10:57:43;15.50;99.60
49503;DHT22;35409;48.776;9.204;2022-09-21T11:00:28;15.50;99.60
49503;DHT22;35409;48.776;9.204;2022-09-21T11:05:50;15.50;99.70
49503;DHT22;35409;48.776;9.204;2022-09-21T11:08:29;15.80;99.50
49503;DHT22;35409;48.776;9.204;2022-09-21T11:11:19;16.10;98.40
49503;DHT22;35409;48.776;9.204;2022-09-21T11:13:57;16.30;97.60
49503;DHT22;35409;48.776;9.204;2022-09-21T11:19:29;16.40;97.90
49503;DHT22;35409;48.776;9.204;2022-09-21T11:22:13;16.50;97.60
49503;DHT22;35409;48.776;9.204;2022-09-21T11:24:56;16.70;97.90
49503;DHT22;35409;48.776;9.204;2022-09-21T11:27:38;16.70;97.00
49503;DHT22;35409;48.776;9.204;2022-09-21T11:30:16;16.50;99.90
49503;DHT22;35409;48.776;9.204;2022-09-21T11:33:19;16.60;99.90
49503;DHT22;35409;48.776;9.204;2022-09-21T11:36:48;16.40;99.90
49503;DHT22;35409;48.776;9.204;2022-09-21T11:42:06;15.80;99.90
49503;DHT22;35409;48.776;9.204;2022-09-21T11:44:46;15.50;97.50
49503;DHT22;35409;48.776;9.204;2022-09-21T11:47:16;15.40;97.90
49503;DHT22;35409;48.776;9.204;2022-09-21T11:50:17;15.40;97.70
49503;DHT22;35409;48.776;9.204;2022-09-21T11:55:43;15.30;97.90
49503;DHT22;35409;48.776;9.204;2022-09-21T12:06:15;16.60;96.10
49503;DHT22;35409;48.776;9.204;2022-09-21T12:09:12;17.50;94.90
49503;DHT22;35409;48.776;9.204;2022-09-21T12:11:53;18.00;93.10
49503;DHT22;35409;48.776;9.204;2022-09-21T12:17:15;17.50;92.30
49503;DHT22;35409;48.776;9.204;2022-09-21T12:20:01;17.10;93.10
49503;DHT22;35409;48.776;9.204;2022-09-21T12:22:31;16.90;93.70
49503;DHT22;35409;48.776;9.204;2022-09-21T12:25:17;16.50;93.80
49503;DHT22;35409;48.776;9.204;2022-09-21T12:28:34;16.80;93.40
49503;DHT22;35409;48.776;9.204;2022-09-21T12:31:11;17.20;92.30
49503;DHT22;35409;48.776;9.204;2022-09-21T12:33:52;17.30;91.60
49503;DHT22;35409;48.776;9.204;2022-09-21T12:36:27;17.10;91.50
49503;DHT22;35409;48.776;9.204;2022-09-21T12:39:13;16.90;91.80
49503;DHT22;35409;48.776;9.204;2022-09-21T12:41:57;17.40;91.80
49503;DHT22;35409;48.776;9.204;2022-09-21T12:44:55;18.60;90.60
49503;DHT22;35409;48.776;9.204;2022-09-21T12:47:39;19.60;93.20
49503;DHT22;35409;48.776;9.204;2022-09-21T12:52:51;21.10;82.50
49503;DHT22;35409;48.776;9.204;2022-09-21T12:55:32;21.60;78.80
49503;DHT22;35409;48.776;9.204;2022-09-21T13:00:29;22.00;77.30
49503;DHT22;35409;48.776;9.204;2022-09-21T13:03:20;22.10;75.00
49503;DHT22;35409;48.776;9.204;2022-09-21T13:06:29;21.80;74.10
49503;DHT22;35409;48.776;9.204;2022-09-21T13:08:42;21.00;75.00
49503;DHT22;35409;48.776;9.204;2022-09-21T13:11:09;20.20;76.70
49503;DHT22;35409;48.776;9.204;2022-09-21T13:13:48;19.50;78.30
49503;DHT22;35409;48.776;9.204;2022-09-21T13:16:29;18.90;78.90
49503;DHT22;35409;48.776;9.204;2022-09-21T13:19:01;18.50;80.70
49503;DHT22;35409;48.776;9.204;2022-09-21T13:21:29;18.30;82.00
49503;DHT22;35409;48.776;9.204;2022-09-21T13:24:01;18.50;81.50
49503;DHT22;35409;48.776;9.204;2022-09-21T13:26:41;18.80;80.40
49503;DHT22;35409;48.776;9.204;2022-09-21T13:34:38;18.30;79.40
49503;DHT22;35409;48.776;9.204;2022-09-21T13:45:01;17.70;82.60
49503;DHT22;35409;48.776;9.204;2022-09-21T13:47:51;18.10;82.60
49503;DHT22;35409;48.776;9.204;2022-09-21T13:52:48;18.10;81.80
49503;DHT22;35409;48.776;9.204;2022-09-21T13:55:32;18.30;80.90
49503;DHT22;35409;48.776;9.204;2022-09-21T13:58:02;18.60;79.90
49503;DHT22;35409;48.776;9.204;2022-09-21T14:01:01;19.00;78.70
49503;DHT22;35409;48.776;9.204;2022-09-21T14:03:40;19.40;77.90
49503;DHT22;35409;48.776;9.204;2022-09-21T14:08:44;20.00;75.30
49503;DHT22;35409;48.776;9.204;2022-09-21T14:11:19;20.00;76.00
49503;DHT22;35409;48.776;9.204;2022-09-21T14:19:03;19.70;74.90
49503;DHT22;35409;48.776;9.204;2022-09-21T14:21:29;19.80;74.70
49503;DHT22;35409;48.776;9.204;2022-09-21T14:26:44;20.20;75.20
49503;DHT22;35409;48.776;9.204;2022-09-21T14:29:28;20.40;74.10
49503;DHT22;35409;48.776;9.204;2022-09-21T14:32:00;20.40;73.50
49503;DHT22;35409;48.776;9.204;2022-09-21T14:34:32;20.30;73.60
49503;DHT22;35409;48.776;9.204;2022-09-21T14:37:03;20.20;74.00
49503;DHT22;35409;48.776;9.204;2022-09-21T14:39:33;19.90;73.70
49503;DHT22;35409;48.776;9.204;2022-09-21T14:42:06;19.40;73.80
49503;DHT22;35409;48.776;9.204;2022-09-21T14:44:38;18.80;74.80
49503;DHT22;35409;48.776;9.204;2022-09-21T14:55:41;18.20;75.50
49503;DHT22;35409;48.776;9.204;2022-09-21T14:58:25;18.50;75.10
49503;DHT22;35409;48.776;9.204;2022-09-21T15:00:54;18.70;75.40
49503;DHT22;35409;48.776;9.204;2022-09-21T15:03:45;19.00;74.00
49503;DHT22;35409;48.776;9.204;2022-09-21T15:07:20;19.10;74.10
49503;DHT22;35409;48.776;9.204;2022-09-21T15:12:21;19.50;73.20
49503;DHT22;35409;48.776;9.204;2022-09-21T15:15:19;19.70;72.00
49503;DHT22;35409;48.776;9.204;2022-09-21T15:17:55;19.70;70.90
49503;DHT22;35409;48.776;9.204;2022-09-21T15:20:25;19.80;71.20
49503;DHT22;35409;48.776;9.204;2022-09-21T15:22:58;19.90;70.10
49503;DHT22;35409;48.776;9.204;2022-09-21T15:25:28;19.90;70.70
49503;DHT22;35409;48.776;9.204;2022-09-21T15:27:55;19.90;70.60
49503;DHT22;35409;48.776;9.204;2022-09-21T15:30:25;19.80;70.60
49503;DHT22;35409;48.776;9.204;2022-09-21T15:32:57;19.60;70.70
49503;DHT22;35409;48.776;9.204;2022-09-21T15:35:26;19.50;70.60
49503;DHT22;35409;48.776;9.204;2022-09-21T15:37:54;19.40;70.10
49503;DHT22;35409;48.776;9.204;2022-09-21T15:40:31;19.30;69.40
49503;DHT22;35409;48.776;9.204;2022-09-21T15:48:24;19.00;69.40
49503;DHT22;35409;48.776;9.204;2022-09-21T15:50:58;18.90;68.40
49503;DHT22;35409;48.776;9.204;2022-09-21T15:53:30;18.90;69.20
49503;DHT22;35409;48.776;9.204;2022-09-21T15:55:57;18.90;68.50
49503;DHT22;35409;48.776;9.204;2022-09-21T15:58:31;18.90;69.00
49503;DHT22;35409;48.776;9.204;2022-09-21T16:01:00;18.90;69.00
49503;DHT22;35409;48.776;9.204;2022-09-21T16:03:26;18.80;70.20
49503;DHT22;35409;48.776;9.204;2022-09-21T16:05:54;18.60;69.20
49503;DHT22;35409;48.776;9.204;2022-09-21T16:08:32;18.40;69.80
49503;DHT22;35409;48.776;9.204;2022-09-21T16:13:42;17.60;71.50
49503;DHT22;35409;48.776;9.204;2022-09-21T16:16:27;17.20;72.20
49503;DHT22;35409;48.776;9.204;2022-09-21T16:18:54;16.90;72.90
49503;DHT22;35409;48.776;9.204;2022-09-21T16:23:55;16.50;73.90
49503;DHT22;35409;48.776;9.204;2022-09-21T16:26:26;16.30;74.70
49503;DHT22;35409;48.776;9.204;2022-09-21T16:29:23;16.10;78.00
49503;DHT22;35409;48.776;9.204;2022-09-21T16:31:50;15.90;77.80
49503;DHT22;35409;48.776;9.204;2022-09-21T16:34:31;15.90;81.80
49503;DHT22;35409;48.776;9.204;2022-09-21T16:37:17;15.50;77.60
49503;DHT22;35409;48.776;9.204;2022-09-21T16:39:57;15.40;78.70
49503;DHT22;35409;48.776;9.204;2022-09-21T16:42:24;15.20;79.70
49503;DHT22;35409;48.776;9.204;2022-09-21T16:44:58;15.10;80.70
49503;DHT22;35409;48.776;9.204;2022-09-21T16:47:26;15.10;81.60
49503;DHT22;35409;48.776;9.204;2022-09-21T16:49:56;15.00;81.60
49503;DHT22;35409;48.776;9.204;2022-09-21T16:52:26;14.90;82.40
49503;DHT22;35409;48.776;9.204;2022-09-21T16:54:56;14.90;82.20
49503;DHT22;35409;48.776;9.204;2022-09-21T16:57:23;14.80;82.90
49503;DHT22;35409;48.776;9.204;2022-09-21T16:59:49;14.70;83.40
49503;DHT22;35409;48.776;9.204;2022-09-21T17:02:16;14.60;84.30
49503;DHT22;35409;48.776;9.204;2022-09-21T17:04:42;14.50;85.90
49503;DHT22;35409;48.776;9.204;2022-09-21T17:07:12;14.40;85.50
49503;DHT22;35409;48.776;9.204;2022-09-21T17:09:40;14.30;93.90
49503;DHT22;35409;48.776;9.204;2022-09-21T17:14:40;14.00;89.20
49503;DHT22;35409;48.776;9.204;2022-09-21T17:17:18;13.90;89.50
49503;DHT22;35409;48.776;9.204;2022-09-21T17:19:45;13.90;90.30
49503;DHT22;35409;48.776;9.204;2022-09-21T17:22:12;13.80;90.40
49503;DHT22;35409;48.776;9.204;2022-09-21T17:24:44;13.60;90.30
49503;DHT22;35409;48.776;9.204;2022-09-21T17:39:26;12.90;93.00
49503;DHT22;35409;48.776;9.204;2022-09-21T17:41:56;12.70;93.70
49503;DHT22;35409;48.776;9.204;2022-09-21T17:47:22;12.40;95.00
49503;DHT22;35409;48.776;9.204;2022-09-21T17:49:50;12.30;95.60
49503;DHT22;35409;48.776;9.204;2022-09-21T17:52:20;12.10;96.20
49503;DHT22;35409;48.776;9.204;2022-09-21T17:55:06;12.00;97.00
49503;DHT22;35409;48.776;9.204;2022-09-21T18:00:54;11.70;98.50
49503;DHT22;35409;48.776;9.204;2022-09-21T18:03:27;11.60;99.30
49503;DHT22;35409;48.776;9.204;2022-09-21T18:05:54;11.50;99.90
49503;DHT22;35409;48.776;9.204;2022-09-21T18:08:27;11.40;99.90
49503;DHT22;35409;48.776;9.204;2022-09-21T18:13:53;11.30;99.90
49503;DHT22;35409;48.776;9.204;2022-09-21T18:19:36;11.10;99.90
49503;DHT22;35409;48.776;9.204;2022-09-21T18:22:31;11.00;99.90
49503;DHT22;35409;48.776;9.204;2022-09-21T19:01:37;10.40;99.90
49503;DHT22;35409;48.776;9.204;2022-09-21T19:04:04;10.30;99.90
49503;DHT22;35409;48.776;9.204;2022-09-21T19:14:43;9.90;99.90
49503;DHT22;35409;48.776;9.204;2022-09-21T19:31:12;9.50;99.90
49503;DHT22;35409;48.776;9.204;2022-09-21T19:33:38;9.40;99.90
49503;DHT22;35409;48.776;9.204;2022-09-21T19:36:05;9.30;99.90
49503;DHT22;35409;48.776;9.204;2022-09-21T19:38:30;9.30;99.90
49503;DHT22;35409;48.776;9.204;2022-09-21T19:41:17;9.30;99.90
49503;DHT22;35409;48.776;9.204;2022-09-21T19:46:32;9.30;99.90
49503;DHT22;35409;48.776;9.204;2022-09-21T19:49:04;9.20;99.90
49503;DHT22;35409;48.776;9.204;2022-09-21T19:54:18;9.20;99.90
49503;DHT22;35409;48.776;9.204;2022-09-21T19:57:20;9.10;99.90
49503;DHT22;35409;48.776;9.204;2022-09-21T20:00:11;9.10;99.90
49503;DHT22;35409;48.776;9.204;2022-09-21T20:05:48;9.00;99.90
49503;DHT22;35409;48.776;9.204;2022-09-21T20:08:36;8.90;99.90
49503;DHT22;35409;48.776;9.204;2022-09-21T20:11:15;8.90;99.90
49503;DHT22;35409;48.776;9.204;2022-09-21T20:13:52;8.80;99.90
49503;DHT22;35409;48.776;9.204;2022-09-21T20:16:45;8.80;99.90
49503;DHT22;35409;48.776;9.204;2022-09-21T20:19:35;8.80;99.90
49503;DHT22;35409;48.776;9.204;2022-09-21T20:22:03;8.80;99.90
49503;DHT22;35409;48.776;9.204;2022-09-21T20:29:44;8.80;99.90